Flight Track Log - Related Links

Times and Time Zones

All times are in EDT time to prevent confusion due to time zone crossing. See the UAL252 flight status page for this flight to view local times or setup timezone preferences in your user account.

Time Position Orientation Groundspeed Altitude Reporting Facility
EDT Latitude Longitude Course Direction KTS MPH feet Rate Location/Type
Wed 07:56:19 PM 37.6833 -122.2833 34° Northeast 229 264 2,600  Level Northern Cal TRACON
Wed 07:57:24 PM 37.7333 -122.2167 47° Northeast 274 315 5,400 126 Climbing Northern Cal TRACON
Wed 07:58:42 PM 37.5500 -122.2167 180° South 190 219 2,900 -1,597 Descending Northern Cal TRACON
Wed 07:59:43 PM 37.5833 -122.2833 302° West 194 223 1,700 5,510 Descending Northern Cal TRACON
Wed 08:00:20 PM 37.9317 -122.0239 30° Northeast 350 403 11,900 7,653 Climbing Oakland Center
Wed 08:01:00 PM 37.8658 -122.1056 34° Northeast  Level FlightAware Approximate
Wed 08:01:21 PM 38.0131 -121.9497 36° Northeast 360 414 14,200  Level Oakland Center
Wed 08:02:23 PM 38.0964 -121.8719 36° Northeast 372 428 16,000 1,756 Climbing Oakland Center
Wed 08:03:24 PM 38.1842 -121.7908 36° Northeast 387 445 17,800 1,805 Climbing Oakland Center
Wed 08:04:26 PM 38.2744 -121.7081 36° Northeast 399 459 19,700 1,659 Climbing Oakland Center
Wed 08:05:27 PM 38.3672 -121.6219 36° Northeast 412 474 21,200 1,525 Climbing Oakland Center
Wed 08:06:28 PM 38.4567 -121.5311 38° Northeast 415 478 22,800 1,463 Climbing Oakland Center
Wed 08:07:30 PM 38.5314 -121.4031 53° Northeast 435 501 24,200 1,512 Climbing Oakland Center
Wed 08:08:31 PM 38.6208 -121.2519 53° Northeast 445 512 25,900 1,328 Climbing Oakland Center
Wed 08:09:32 PM 38.6858 -121.1369 54° Northeast 452 520 26,900 780 Climbing Oakland Center
Wed 08:10:34 PM 38.7642 -121.0008 54° Northeast 471 542 27,500 878 Climbing Oakland Center
Wed 08:11:35 PM 38.8458 -120.8597 53° Northeast 489 563 28,700 1,426 Climbing Oakland Center
Wed 08:12:36 PM 38.9433 -120.6914 53° Northeast 489 563 30,400 1,512 Climbing Oakland Center
Wed 08:13:38 PM 39.0233 -120.5533 53° Northeast 484 557 31,800 1,171 Climbing Oakland Center
Wed 08:14:39 PM 39.1022 -120.4136 54° Northeast 483 556 32,800 984 Climbing Oakland Center
Wed 08:15:40 PM 39.1856 -120.2725 53° Northeast 493 567 33,800 1,131 Climbing Oakland Center
Wed 08:16:41 PM 39.2642 -120.1325 54° Northeast 485 558 35,100 1,024 Climbing Oakland Center
Wed 08:17:43 PM 39.3486 -119.9872 53° Northeast 483 556 35,900 878 Climbing Oakland Center
Wed 08:18:44 PM 39.4267 -119.8464 54° Northeast 480 552 36,900 541 Climbing Oakland Center
Wed 08:19:45 PM 39.5039 -119.7075 54° Northeast 475 547 37,000 49 Climbing Oakland Center
Wed 08:20:47 PM 39.5672 -119.5578 61° Northeast 474 545 37,000  Level Oakland Center
Wed 08:21:48 PM 39.6214 -119.3992 66° East 477 549 37,000  Level Oakland Center
Wed 08:22:49 PM 39.6761 -119.2408 66° East 478 550 37,000  Level Oakland Center
Wed 08:23:51 PM 39.7303 -119.0819 66° East 478 550 37,000  Level Oakland Center
Wed 08:24:52 PM 39.7853 -118.9233 66° East 477 549 37,000  Level Oakland Center
Wed 08:25:53 PM 39.8381 -118.7628 67° East 478 550 37,000 -49 Level Oakland Center
Wed 08:26:55 PM 39.8925 -118.6036 66° East 477 549 36,900  Descending Oakland Center
Wed 08:27:56 PM 39.9550 -118.4133 67° East 474 545 37,000 49 Climbing Oakland Center
Wed 08:28:57 PM 40.0081 -118.2544 66° East 476 548 37,000  Level Oakland Center
Wed 08:29:59 PM 40.0617 -118.0947 66° East 478 550 37,000  Level Oakland Center
Wed 08:31:00 PM 40.1133 -117.9350 67° East 478 550 37,000  Level Oakland Center
Wed 08:32:01 PM 40.1656 -117.7758 67° East 478 550 37,000  Level Oakland Center
Wed 08:33:03 PM 40.2211 -117.6183 65° Northeast 477 549 37,000  Level Oakland Center
Wed 08:33:37 PM 40.2575 -117.5422 58° Northeast 479 551 37,000  Level Salt Lake Center
Wed 08:34:39 PM 40.3328 -117.3744 59° Northeast 479 551 37,000  Level Salt Lake Center
Wed 08:35:41 PM 40.3972 -117.2325 59° Northeast 475 547 37,000  Level Salt Lake Center
Wed 08:36:43 PM 40.4736 -117.0639 59° Northeast 475 547 37,000  Level Salt Lake Center
Wed 08:37:45 PM 40.5383 -116.9150 60° Northeast 478 550 37,000  Level Salt Lake Center
Wed 08:38:46 PM 40.6039 -116.7692 59° Northeast 475 547 37,000  Level Salt Lake Center
Wed 08:39:48 PM 40.6794 -116.6022 59° Northeast 473 544 37,000  Level Salt Lake Center
Wed 08:40:50 PM 40.7428 -116.4594 60° Northeast 472 543 37,000  Level Salt Lake Center
Wed 08:41:52 PM 40.8192 -116.2925 59° Northeast 475 547 37,000  Level Salt Lake Center
Wed 08:42:54 PM 40.8822 -116.1478 60° Northeast 474 545 37,000  Level Salt Lake Center
Wed 08:43:56 PM 40.9478 -116.0056 59° Northeast 476 548 37,000  Level Salt Lake Center
Wed 08:44:58 PM 41.0217 -115.8386 60° Northeast 471 542 37,000  Level Salt Lake Center
Wed 08:46:00 PM 41.0917 -115.6756 60° Northeast 469 540 37,000 -49 Level Salt Lake Center
Wed 08:47:01 PM 41.1575 -115.5269 59° Northeast 472 543 36,900  Descending Salt Lake Center
Wed 08:48:03 PM 41.2217 -115.3822 59° Northeast 473 544 37,000 48 Climbing Salt Lake Center
Wed 08:49:05 PM 41.2958 -115.2111 60° Northeast 477 549 37,000  Level Salt Lake Center
Wed 08:51:09 PM 41.4333 -114.8922 60° Northeast 479 551 37,000  Level Salt Lake Center
Wed 08:52:10 PM 41.4881 -114.7619 61° Northeast 473 544 37,000  Level Salt Lake Center
Wed 08:53:12 PM 41.5669 -114.5778 60° Northeast 476 548 37,000  Level Salt Lake Center
Wed 08:54:14 PM 41.6306 -114.4231 61° Northeast 475 547 37,000  Level Salt Lake Center
Wed 08:55:16 PM 41.6761 -114.2583 70° East 474 545 37,000  Level Salt Lake Center
Wed 08:56:18 PM 41.7211 -114.0922 70° East 474 545 37,000  Level Salt Lake Center
Wed 08:57:19 PM 41.7647 -113.9275 70° East 472 543 37,000  Level Salt Lake Center
Wed 08:58:21 PM 41.8075 -113.7608 71° East 473 544 37,000  Level Salt Lake Center
Wed 08:59:23 PM 41.8500 -113.5942 71° East 472 543 37,000  Level Salt Lake Center
Wed 09:00:25 PM 41.9014 -113.3931 71° East 474 545 37,000  Level Salt Lake Center
Wed 09:01:26 PM 41.9422 -113.2278 72° East 469 540 37,000  Level Salt Lake Center
Wed 09:02:28 PM 41.9844 -113.0597 71° East 473 544 37,000  Level Salt Lake Center
Wed 09:03:30 PM 42.0253 -112.8944 72° East 468 539 37,000  Level Salt Lake Center
Wed 09:04:32 PM 42.0658 -112.7281 72° East 467 537 37,000  Level Salt Lake Center
Wed 09:05:34 PM 42.1069 -112.5603 72° East 470 541 37,000  Level Salt Lake Center
Wed 09:06:35 PM 42.1481 -112.3925 72° East 470 541 37,000  Level Salt Lake Center
Wed 09:07:37 PM 42.1964 -112.1892 72° East 474 545 37,000  Level Salt Lake Center
Wed 09:08:39 PM 42.2372 -112.0200 72° East 474 545 37,000  Level Salt Lake Center
Wed 09:09:41 PM 42.2775 -111.8528 72° East 471 542 37,000  Level Salt Lake Center
Wed 09:10:43 PM 42.3164 -111.6856 72° East 468 539 37,000  Level Salt Lake Center
Wed 09:11:44 PM 42.3561 -111.5189 72° East 467 537 37,000  Level Salt Lake Center
Wed 09:12:46 PM 42.3947 -111.3503 73° East 468 539 37,000  Level Salt Lake Center
Wed 09:13:48 PM 42.4339 -111.1825 72° East 468 539 37,000  Level Salt Lake Center
Wed 09:14:50 PM 42.4728 -111.0122 73° East 472 543 37,000  Level Salt Lake Center
Wed 09:15:51 PM 42.5150 -110.8250 73° East 472 543 37,000  Level Salt Lake Center
Wed 09:16:53 PM 42.5600 -110.6331 72° East 476 548 37,000  Level Salt Lake Center
Wed 09:17:55 PM 42.5958 -110.4681 74° East 477 549 37,000  Level Salt Lake Center
Wed 09:18:56 PM 42.6381 -110.2775 73° East 473 544 37,000 -49 Level Salt Lake Center
Wed 09:19:58 PM 42.6742 -110.1136 73° East 473 544 36,900 -48 Descending Salt Lake Center
Wed 09:21:00 PM 42.7094 -109.9508 74° East 470 541 36,900 49 Level Salt Lake Center
Wed 09:22:01 PM 42.7517 -109.7608 73° East 469 540 37,000 49 Climbing Salt Lake Center
Wed 09:23:03 PM 42.7875 -109.5967 73° East 471 542 37,000  Level Salt Lake Center
Wed 09:24:05 PM 42.8281 -109.4039 74° East 473 544 37,000  Level Salt Lake Center
Wed 09:25:06 PM 42.8639 -109.2386 73° East 475 547 37,000  Level Salt Lake Center
Wed 09:26:08 PM 42.8975 -109.0714 75° East 476 548 37,000  Level Salt Lake Center
Wed 09:27:10 PM 42.9389 -108.8767 74° East 478 550 37,000  Level Salt Lake Center
Wed 09:28:11 PM 42.9850 -108.7014 70° East 485 558 37,000  Level Salt Lake Center
Wed 09:29:13 PM 43.0353 -108.5361 67° East 477 549 37,000  Level Salt Lake Center
Wed 09:30:15 PM 43.0844 -108.3672 68° East 480 552 37,000  Level Salt Lake Center
Wed 09:31:16 PM 43.1344 -108.1986 68° East 481 554 37,000  Level Salt Lake Center
Wed 09:32:18 PM 43.2033 -108.0469 58° Northeast 473 544 37,000 -49 Level Salt Lake Center
Wed 09:33:19 PM 43.2828 -107.8611 60° Northeast 474 545 36,900 -49 Descending Salt Lake Center
Wed 09:34:21 PM 43.3306 -107.6908 69° East 483 556 36,900 48 Level Salt Lake Center
Wed 09:35:23 PM 43.3828 -107.5200 67° East 485 558 37,000 48 Climbing Salt Lake Center
Wed 09:36:25 PM 43.4314 -107.3453 69° East 492 566 37,000  Level Salt Lake Center
Wed 09:37:26 PM 43.4478 -107.1594 83° East 496 571 37,000  Level Salt Lake Center
Wed 09:38:07 PM 43.4586 -107.0064 84° East 500 575 37,000  Level Denver Center
Wed 09:39:09 PM 43.4700 -106.8344 85° East 497 572 37,000  Level Denver Center
Wed 09:40:11 PM 43.4822 -106.6261 85° East 489 563 37,000  Level Denver Center
Wed 09:41:13 PM 43.4936 -106.4469 85° East 489 563 37,000 -48 Level Denver Center
Wed 09:42:15 PM 43.4931 -106.2386 90° East 488 562 36,900  Descending Denver Center
Wed 09:43:16 PM 43.4908 -106.0886 91° East 491 565 37,000 48 Climbing Denver Center
Wed 09:44:19 PM 43.4881 -105.8489 91° East 489 563 37,000  Level Denver Center
Wed 09:45:21 PM 43.4864 -105.6667 91° East 496 571 37,000  Level Denver Center
Wed 09:46:23 PM 43.4850 -105.4547 90° East 495 570 37,000  Level Denver Center
Wed 09:47:25 PM 43.4747 -105.2714 94° East 501 577 37,000  Level Denver Center
Wed 09:48:27 PM 43.4650 -105.0594 94° East 498 573 37,000  Level Denver Center
Wed 09:49:29 PM 43.4564 -104.8786 94° East 495 570 37,000 -48 Level Denver Center
Wed 09:50:31 PM 43.4447 -104.6986 95° East 493 567 36,900  Descending Denver Center
Wed 09:51:33 PM 43.4283 -104.4889 96° East 493 567 37,000 48 Climbing Denver Center
Wed 09:52:35 PM 43.4158 -104.3078 95° East 494 568 37,000  Level Denver Center
Wed 09:53:37 PM 43.4261 -104.0975 86° East 496 571 37,000 -48 Level Denver Center
Wed 09:54:39 PM 43.4364 -103.9175 85° East 493 567 36,900  Descending Denver Center
Wed 09:55:41 PM 43.4492 -103.7044 85° East 499 574 37,000 48 Climbing Denver Center
Wed 09:56:43 PM 43.4597 -103.5219 85° East 501 577 37,000  Level Denver Center
Wed 09:57:45 PM 43.4711 -103.3064 86° East 505 581 37,000  Level Denver Center
Wed 09:58:47 PM 43.4808 -103.1186 86° East 511 588 37,000  Level Denver Center
Wed 09:59:49 PM 43.4911 -102.9311 86° East 513 590 37,000  Level Denver Center
Wed 10:00:51 PM 43.5022 -102.7108 86° East 517 595 37,000  Level Denver Center
Wed 10:01:53 PM 43.5103 -102.5192 87° East 523 602 37,000  Level Denver Center
Wed 10:02:55 PM 43.5217 -102.2986 86° East 519 597 37,000 -48 Level Denver Center
Wed 10:03:57 PM 43.5306 -102.0972 86° East 518 596 36,900 -48 Descending Denver Center
Wed 10:04:59 PM 43.5394 -101.9028 86° East 512 589 36,900  Level Denver Center
Wed 10:06:01 PM 43.5472 -101.7064 87° East 515 593 36,900 48 Level Denver Center
Wed 10:07:03 PM 43.5531 -101.5506 87° East 512 589 37,000 48 Climbing Denver Center
Wed 10:08:05 PM 43.5631 -101.3153 87° East 515 593 37,000  Level Denver Center
Wed 10:09:02 PM 43.5714 -101.1222 87° East 513 590 37,000  Level Minneapolis Center
Wed 10:10:04 PM 43.5778 -100.9247 87° East 516 594 37,000  Level Minneapolis Center
Wed 10:11:05 PM 43.5861 -100.6867 87° East 519 597 37,000  Level Minneapolis Center
Wed 10:12:07 PM 43.5925 -100.4889 87° East 519 597 37,000  Level Minneapolis Center
Wed 10:13:08 PM 43.5994 -100.2886 87° East 522 601 37,000  Level Minneapolis Center
Wed 10:14:10 PM 43.6047 -100.0881 88° East 525 604 37,000  Level Minneapolis Center
Wed 10:15:11 PM 43.6106 -99.8883 88° East 524 603 37,000  Level Minneapolis Center
Wed 10:16:13 PM 43.6156 -99.6894 88° East 522 601 37,000  Level Minneapolis Center
Wed 10:17:15 PM 43.6200 -99.4889 88° East 525 604 37,000  Level Minneapolis Center
Wed 10:18:16 PM 43.6244 -99.2886 88° East 525 604 37,000  Level Minneapolis Center
Wed 10:19:19 PM 43.6292 -99.0486 88° East 524 603 37,000  Level Minneapolis Center
Wed 10:20:32 PM 43.6331 -98.8511 88° East 520 598 37,000  Level Minneapolis Center
Wed 10:21:34 PM 43.6367 -98.5964 89° East 519 597 37,000 -49 Level Minneapolis Center
Wed 10:22:35 PM 43.6403 -98.4003 88° East 514 592 36,900  Descending Minneapolis Center
Wed 10:23:49 PM 43.6425 -98.2022 89° East 516 594 37,000 44 Climbing Minneapolis Center
Wed 10:24:50 PM 43.6442 -97.9658 89° East 517 595 37,000  Level Minneapolis Center
Wed 10:25:52 PM 43.6464 -97.7672 89° East 519 597 37,000  Level Minneapolis Center
Wed 10:26:53 PM 43.6472 -97.5697 90° East 518 596 37,000  Level Minneapolis Center
Wed 10:27:55 PM 43.6481 -97.3708 90° East 520 598 37,000  Level Minneapolis Center
Wed 10:28:56 PM 43.6492 -97.1708 89° East 524 603 37,000  Level Minneapolis Center
Wed 10:29:57 PM 43.6492 -96.9367 90° East 515 593 37,000  Level Minneapolis Center
Wed 10:30:59 PM 43.6433 -96.7408 92° East 515 593 37,000  Level Minneapolis Center
Wed 10:32:00 PM 43.6214 -96.5878 101° East 514 592 37,000 -49 Level Minneapolis Center
Wed 10:33:02 PM 43.5872 -96.3578 102° East 515 593 36,900  Descending Minneapolis Center
Wed 10:34:03 PM 43.5597 -96.1675 101° East 513 590 37,000 49 Climbing Minneapolis Center
Wed 10:35:04 PM 43.5303 -95.9756 102° East 516 594 37,000  Level Minneapolis Center
Wed 10:36:06 PM 43.5011 -95.7850 102° East 514 592 37,000  Level Minneapolis Center
Wed 10:37:07 PM 43.4656 -95.5547 102° East 517 595 37,000  Level Minneapolis Center
Wed 10:38:08 PM 43.4353 -95.3631 102° East 517 595 37,000  Level Minneapolis Center
Wed 10:39:10 PM 43.4050 -95.1708 102° East 518 596 37,000  Level Minneapolis Center
Wed 10:40:12 PM 43.3750 -94.9825 102° East 510 587 37,000  Level Minneapolis Center
Wed 10:41:13 PM 43.3436 -94.7917 103° East 513 590 37,000  Level Minneapolis Center
Wed 10:42:14 PM 43.3125 -94.6017 103° East 512 589 37,000  Level Minneapolis Center
Wed 10:43:16 PM 43.2808 -94.4133 103° East 509 586 37,000  Level Minneapolis Center
Wed 10:44:17 PM 43.2450 -94.2042 103° East 514 592 37,000  Level Minneapolis Center
Wed 10:45:30 PM 43.2144 -94.0167 103° East 511 588 37,000  Level Minneapolis Center
Wed 10:46:32 PM 43.1753 -93.7906 103° East 513 590 37,000  Level Minneapolis Center
Wed 10:47:33 PM 43.1419 -93.6028 104° East 511 588 37,000  Level Minneapolis Center
Wed 10:48:34 PM 43.1094 -93.4156 103° East 511 588 37,000  Level Minneapolis Center
Wed 10:49:36 PM 43.0856 -93.1911 98° East 500 575 37,000 -49 Level Minneapolis Center
Wed 10:50:37 PM 43.0761 -93.0053 94° East 495 570 36,900 -49 Descending Minneapolis Center
Wed 10:51:38 PM 43.0644 -92.8194 95° East 495 570 36,900 49 Level Minneapolis Center
Wed 10:52:39 PM 43.0542 -92.6356 94° East 492 566 37,000 49 Climbing Minneapolis Center
Wed 10:53:41 PM 43.0431 -92.4500 95° East 493 567 37,000  Level Minneapolis Center
Wed 10:54:42 PM 43.0303 -92.2644 95° East 494 568 37,000  Level Minneapolis Center
Wed 10:55:55 PM 43.0167 -92.0397 95° East 495 570 37,000  Level Minneapolis Center
Wed 10:56:56 PM 43.0031 -91.8531 96° East 497 572 37,000  Level Chicago Center
Wed 10:57:57 PM 42.9892 -91.6289 95° East 492 566 37,000  Level Chicago Center
Wed 10:58:59 PM 42.9761 -91.4400 95° East 492 566 37,000  Level Minneapolis Center
Wed 11:00:05 PM 42.9617 -91.2544 96° East 491 565 37,000  Level Minneapolis Center
Wed 11:01:01 PM 42.9486 -91.0731 96° East 488 562 37,000 -51 Level Chicago Center
Wed 11:02:02 PM 42.9347 -90.8906 96° East 487 560 36,900  Descending Chicago Center
Wed 11:03:03 PM 42.9197 -90.7069 96° East 490 564 37,000 49 Climbing Chicago Center
Wed 11:04:05 PM 42.9058 -90.5231 96° East 491 565 37,000  Level Chicago Center
Wed 11:05:06 PM 42.8911 -90.3400 96° East 489 563 37,000  Level Chicago Center
Wed 11:06:07 PM 42.8742 -90.1581 97° East 491 565 37,000  Level Chicago Center
Wed 11:07:08 PM 42.8583 -89.9750 97° East 490 564 37,000  Level Chicago Center
Wed 11:08:10 PM 42.8431 -89.7703 96° East 483 556 37,000  Level Chicago Center
Wed 11:09:11 PM 42.8272 -89.5881 97° East 484 557 37,000  Level Chicago Center
Wed 11:10:12 PM 42.8106 -89.4056 97° East 486 559 37,000  Level Chicago Center
Wed 11:11:13 PM 42.7942 -89.2242 97° East 485 558 37,000  Level Chicago Center
Wed 11:12:14 PM 42.7744 -89.0119 97° East 484 557 37,000  Level Chicago Center
Wed 11:13:16 PM 42.7578 -88.8314 97° East 482 555 37,000  Level Chicago Center
Wed 11:14:17 PM 42.7408 -88.6525 97° East 480 552 37,000  Level Chicago Center
Wed 11:15:18 PM 42.7225 -88.4733 98° East 479 551 37,000  Level Chicago Center
Wed 11:16:19 PM 42.7053 -88.2967 97° East 475 547 37,000  Level Chicago Center
Wed 11:17:20 PM 42.6878 -88.1192 98° East 475 547 37,000  Level Chicago Center
Wed 11:18:21 PM 42.6697 -87.9419 98° East 476 548 37,000  Level Chicago Center
Wed 11:19:22 PM 42.6514 -87.7661 98° East 473 544 37,000  Level Chicago Center
Wed 11:20:23 PM 42.6306 -87.5625 98° East 470 541 37,000  Level Chicago Center
Wed 11:21:25 PM 42.6119 -87.3894 98° East 466 536 37,000  Level Chicago Center
Wed 11:22:26 PM 42.5944 -87.2294 98° East 468 539 37,000 -49 Level Chicago Center
Wed 11:23:27 PM 42.5753 -87.0564 98° East 466 536 36,900  Descending Chicago Center
Wed 11:24:28 PM 42.5558 -86.8833 99° East 466 536 37,000 49 Climbing Chicago Center
Wed 11:25:29 PM 42.5356 -86.7089 99° East 469 540 37,000  Level Chicago Center
Wed 11:26:30 PM 42.5058 -86.5014 101° East 474 545 37,000  Level Chicago Center
Wed 11:27:31 PM 42.4675 -86.3297 107° East 479 551 37,000  Level Chicago Center
Wed 11:28:32 PM 42.4314 -86.1603 106° East 475 547 37,000  Level Chicago Center
Wed 11:29:33 PM 42.3953 -85.9939 106° East 467 537 37,000 -49 Level Chicago Center
Wed 11:30:34 PM 42.3614 -85.8311 106° East 457 526 36,900 -49 Descending Chicago Center
Wed 11:31:35 PM 42.3247 -85.6700 107° East 452 520 36,900 -246 Level Chicago Center
Wed 11:32:36 PM 42.2864 -85.5075 108° East 455 524 36,400 -836 Descending Chicago Center
Wed 11:33:37 PM 42.2478 -85.3403 107° East 465 535 35,200 -1,131 Descending Chicago Center
Wed 11:34:38 PM 42.2128 -85.1697 105° East 475 547 34,100 -1,033 Descending Chicago Center
Wed 11:35:39 PM 42.1758 -85.0033 107° East 469 540 33,100 -689 Descending Chicago Center
Wed 11:36:40 PM 42.1300 -84.8053 107° East 465 535 32,700 -639 Descending Chicago Center
Wed 11:37:41 PM 42.0914 -84.6414 108° East 464 534 31,800 -934 Descending Chicago Center
Wed 11:38:42 PM 42.0542 -84.4733 107° East 467 537 30,800 -973 Descending Chicago Center
Wed 11:39:32 PM 42.0236 -84.3347 106° East 465 535 30,000 -927 Descending Cleveland Center
Wed 11:40:32 PM 41.9825 -84.1897 111° Southeast 465 535 29,100 -950 Descending Cleveland Center
Wed 11:41:32 PM 41.9456 -84.0311 107° East 454 522 28,100 -1,100 Descending Cleveland Center
Wed 11:42:32 PM 41.9047 -83.8617 108° East 444 511 26,900 -1,100 Descending Cleveland Center
Wed 11:43:32 PM 41.8694 -83.7092 107° East 439 505 25,900 -1,350 Descending Cleveland Center
Wed 11:44:32 PM 41.8339 -83.5569 107° East 431 496 24,200 -1,850 Descending Cleveland Center
Wed 11:45:32 PM 41.7978 -83.4131 109° East 426 490 22,200 -2,000 Descending Cleveland Center
Wed 11:46:32 PM 41.7639 -83.2697 108° East 411 473 20,200 -1,950 Descending Cleveland Center
Wed 11:47:32 PM 41.7294 -83.1347 109° East 394 453 18,300 -1,850 Descending Cleveland Center
Wed 11:48:32 PM 41.6989 -83.0056 108° East 380 437 16,500 -1,800 Descending Cleveland Center
Wed 11:49:32 PM 41.6681 -82.8764 108° East 370 426 14,700 -1,300 Descending Cleveland Center
Wed 11:50:32 PM 41.6389 -82.7642 109° East 357 411 13,900 -1,150 Descending Cleveland Center
Wed 11:51:32 PM 41.6081 -82.6411 108° East 349 402 12,400 -1,700 Descending Cleveland Center
Wed 11:52:32 PM 41.5744 -82.5289 112° Southeast 341 392 10,500 -1,200 Descending Cleveland Center
Wed 11:53:32 PM 41.5283 -82.4250 121° Southeast 322 371 10,000 -850 Descending Cleveland Center
Wed 11:54:32 PM 41.4861 -82.3239 119° Southeast 302 348 8,800 -1,600 Descending Cleveland Center
Wed 11:55:32 PM 41.4436 -82.2314 121° Southeast 294 338 6,800 -1,950 Descending Cleveland Center
Wed 11:56:32 PM 41.4094 -82.1472 118° Southeast 274 315 4,900 -1,350 Descending Cleveland Center
Wed 11:57:32 PM 41.3728 -82.0689 122° Southeast 262 302 4,100 -900 Descending Cleveland Center
Wed 11:58:32 PM 41.3425 -82.0019 121° Southeast 227 261 3,100 -900 Descending Cleveland Center
Wed 11:59:32 PM 41.3472 -81.9522 83° East 145 167 2,300 -750 Descending Cleveland Center
Thu 12:00:32 AM 41.3706 -81.9167 49° Northeast 121 139 1,600 -700 Descending Cleveland Center

Login

Don't have an account? Register now (free) for customized features, flight alerts, and more!